createdAt,value
2018-12-12T00:02:26.608Z,7.20
2018-12-12T00:04:54.958Z,4.03
2018-12-12T00:07:23.569Z,5.50
2018-12-12T00:09:51.933Z,4.80
2018-12-12T00:12:20.256Z,10.77
2018-12-12T00:14:48.585Z,5.00
2018-12-12T00:17:16.894Z,3.97
2018-12-12T00:19:45.855Z,7.40
2018-12-12T00:22:14.187Z,5.70
2018-12-12T00:24:42.490Z,2.87
2018-12-12T00:27:11.938Z,4.77
2018-12-12T00:29:40.259Z,4.40
2018-12-12T00:32:08.611Z,3.23
2018-12-12T00:34:38.272Z,5.80
2018-12-12T00:37:06.589Z,6.40
2018-12-12T00:39:35.964Z,6.33
2018-12-12T00:42:04.735Z,4.97
2018-12-12T00:44:33.054Z,3.57
2018-12-12T00:47:01.479Z,8.03
2018-12-12T00:49:29.807Z,3.83
2018-12-12T00:51:59.140Z,4.20
2018-12-12T00:54:27.868Z,4.80
2018-12-12T00:56:56.243Z,3.33
2018-12-12T00:59:24.657Z,4.10
2018-12-12T01:01:53.886Z,2.73
2018-12-12T01:04:22.224Z,4.50
2018-12-12T01:06:50.572Z,3.50
2018-12-12T01:09:18.959Z,3.17
2018-12-12T01:11:52.639Z,3.10
2018-12-12T01:14:21.396Z,6.73
2018-12-12T01:16:49.738Z,3.70
2018-12-12T01:19:18.150Z,2.67
2018-12-12T01:21:46.483Z,4.90
2018-12-12T01:24:14.915Z,3.90
2018-12-12T01:26:43.243Z,3.97
2018-12-12T01:29:11.551Z,5.67
2018-12-12T01:31:39.871Z,3.27
2018-12-12T01:34:08.163Z,2.33
2018-12-12T01:36:36.480Z,5.30
2018-12-12T01:39:06.707Z,3.17
2018-12-12T01:41:36.042Z,3.83
2018-12-12T01:44:04.448Z,6.37
2018-12-12T01:46:32.868Z,2.40
2018-12-12T01:49:02.195Z,5.13
2018-12-12T01:51:30.531Z,2.30
2018-12-12T01:53:58.835Z,3.63
2018-12-12T01:56:27.152Z,2.40
2018-12-12T01:58:55.465Z,3.83
2018-12-12T02:01:26.122Z,2.80
2018-12-12T02:03:54.433Z,3.97
2018-12-12T02:06:22.759Z,4.67
2018-12-12T02:08:51.064Z,4.80
2018-12-12T02:11:19.391Z,2.70
2018-12-12T02:13:47.772Z,2.70
2018-12-12T02:16:16.303Z,2.27
2018-12-12T02:18:46.055Z,3.90
2018-12-12T02:21:14.336Z,3.30
2018-12-12T02:23:42.731Z,2.60
2018-12-12T02:26:11.069Z,2.70
2018-12-12T02:28:40.411Z,3.17
2018-12-12T02:31:08.724Z,2.30
2018-12-12T02:33:37.052Z,4.93
2018-12-12T02:36:05.472Z,2.83
2018-12-12T02:38:33.775Z,3.53
2018-12-12T02:41:02.220Z,3.33
2018-12-12T02:43:30.523Z,3.80
2018-12-12T02:45:59.157Z,3.80
2018-12-12T02:48:27.612Z,2.47
2018-12-12T02:50:55.957Z,2.37
2018-12-12T02:53:24.307Z,4.13
2018-12-12T02:55:52.599Z,3.47
2018-12-12T02:58:21.944Z,3.13
2018-12-12T03:00:50.240Z,2.50
2018-12-12T03:03:19.576Z,2.63
2018-12-12T03:05:47.892Z,3.10
2018-12-12T03:08:17.260Z,2.60
2018-12-12T03:10:45.567Z,3.43
2018-12-12T03:13:13.900Z,4.30
2018-12-12T03:15:43.216Z,3.83
2018-12-12T03:18:11.545Z,3.37
2018-12-12T03:20:40.987Z,2.07
2018-12-12T03:23:09.306Z,2.17
2018-12-12T03:25:37.629Z,3.13
2018-12-12T03:28:05.956Z,2.30
2018-12-12T03:30:34.270Z,2.47
2018-12-12T03:33:02.713Z,2.73
2018-12-12T03:35:32.132Z,3.77
2018-12-12T03:38:00.463Z,3.07
2018-12-12T03:40:29.075Z,2.73
2018-12-12T03:42:57.593Z,2.53
2018-12-12T03:45:26.912Z,3.70
2018-12-12T03:47:56.222Z,2.13
2018-12-12T03:50:24.523Z,3.93
2018-12-12T03:52:52.860Z,2.60
2018-12-12T03:55:21.168Z,2.90
2018-12-12T03:57:49.626Z,2.60
2018-12-12T04:00:18.030Z,2.77
2018-12-12T04:02:46.722Z,2.63
2018-12-12T04:05:15.128Z,2.70
2018-12-12T04:07:43.452Z,3.23
2018-12-12T04:10:11.772Z,8.20
2018-12-12T04:12:40.128Z,3.53
2018-12-12T04:15:08.516Z,2.80
2018-12-12T04:17:36.815Z,2.27
2018-12-12T04:20:05.780Z,5.20
2018-12-12T04:22:35.514Z,3.53
2018-12-12T04:25:05.594Z,2.83
2018-12-12T04:27:35.053Z,3.90
2018-12-12T04:30:03.780Z,26.93
2018-12-12T04:32:33.650Z,116.50
2018-12-12T04:35:02.269Z,309.70
2018-12-12T04:37:30.735Z,270.77
2018-12-12T04:40:00.055Z,254.10
2018-12-12T04:42:28.391Z,192.60
2018-12-12T04:44:56.672Z,228.80
2018-12-12T04:47:24.954Z,170.53
2018-12-12T04:49:53.319Z,190.63
2018-12-12T04:52:21.643Z,157.87
2018-12-12T04:54:49.990Z,175.87
2018-12-12T04:57:18.330Z,157.53
2018-12-12T04:59:46.681Z,163.40
2018-12-12T05:02:19.800Z,151.13
2018-12-12T05:04:48.243Z,135.10
2018-12-12T05:07:16.548Z,175.13
2018-12-12T05:09:44.863Z,122.10
2018-12-12T05:12:14.208Z,137.50
2018-12-12T05:14:43.591Z,134.60
2018-12-12T05:17:12.968Z,111.87
2018-12-12T05:19:41.305Z,116.37
2018-12-12T05:22:09.664Z,109.07
2018-12-12T05:24:37.984Z,114.40
2018-12-12T05:27:07.347Z,129.50
2018-12-12T05:29:36.237Z,112.00
2018-12-12T05:32:04.688Z,97.57
2018-12-12T05:34:32.998Z,91.60
2018-12-12T05:37:01.657Z,104.57
2018-12-12T05:39:29.997Z,91.83
2018-12-12T05:41:59.366Z,104.93
2018-12-12T05:44:28.672Z,88.03
2018-12-12T05:46:56.983Z,81.47
2018-12-12T05:49:25.464Z,84.93
2018-12-12T05:51:53.803Z,69.50
2018-12-12T05:54:23.159Z,75.73
2018-12-12T05:56:52.457Z,70.37
2018-12-12T05:59:21.087Z,74.90
2018-12-12T06:01:49.725Z,66.27
2018-12-12T06:04:18.048Z,59.97
2018-12-12T06:06:46.355Z,79.30
2018-12-12T06:09:14.775Z,64.47
2018-12-12T06:11:43.121Z,75.53
2018-12-12T06:14:12.123Z,60.80
2018-12-12T06:16:40.468Z,51.07
2018-12-12T06:19:08.824Z,59.47
2018-12-12T06:21:37.179Z,55.30
2018-12-12T06:24:05.527Z,54.13
2018-12-12T06:26:37.377Z,62.87
2018-12-12T06:29:04.996Z,52.40
2018-12-12T06:31:33.441Z,67.03
2018-12-12T06:34:01.768Z,49.07
2018-12-12T06:36:30.091Z,56.67
2018-12-12T06:38:58.416Z,55.70
2018-12-12T06:41:26.960Z,55.90
2018-12-12T06:43:56.291Z,48.97
2018-12-12T06:46:26.412Z,43.93
2018-12-12T06:48:55.898Z,50.60
2018-12-12T06:51:26.423Z,61.57
2018-12-12T06:53:54.740Z,53.53
2018-12-12T06:56:23.089Z,44.63
2018-12-12T06:58:52.399Z,47.03
2018-12-12T07:01:20.831Z,48.30
2018-12-12T07:03:49.613Z,44.53
2018-12-12T07:06:18.875Z,39.13
2018-12-12T07:08:47.819Z,41.30
2018-12-12T07:11:17.540Z,42.87
2018-12-12T07:13:45.848Z,32.20
2018-12-12T07:16:14.187Z,38.37
2018-12-12T07:18:43.503Z,31.77
2018-12-12T07:21:11.873Z,34.80
2018-12-12T07:23:40.763Z,32.30
2018-12-12T07:26:09.479Z,38.13
2018-12-12T07:28:37.787Z,42.20
2018-12-12T07:31:06.157Z,35.60
2018-12-12T07:33:34.558Z,32.23
2018-12-12T07:36:02.957Z,29.77
2018-12-12T07:38:32.317Z,31.13
2018-12-12T07:41:00.638Z,31.27
2018-12-12T07:43:28.975Z,41.60
2018-12-12T07:45:57.325Z,31.13
2018-12-12T07:48:27.699Z,27.57
2018-12-12T07:50:56.050Z,35.93
2018-12-12T07:53:24.438Z,28.27
2018-12-12T07:55:53.812Z,28.20
2018-12-12T07:58:22.168Z,30.77
2018-12-12T08:00:50.519Z,35.97
2018-12-12T08:03:19.289Z,29.93
2018-12-12T08:05:47.663Z,32.50
2018-12-12T08:08:15.989Z,24.00
2018-12-12T08:10:45.332Z,29.73
2018-12-12T08:13:13.684Z,22.23
2018-12-12T08:15:43.074Z,30.97
2018-12-12T08:18:11.799Z,26.67
2018-12-12T08:20:40.133Z,23.90
2018-12-12T08:23:09.111Z,19.67
2018-12-12T08:25:38.607Z,21.50
2018-12-12T08:28:07.176Z,28.50
2018-12-12T08:30:36.529Z,22.60
2018-12-12T08:33:10.934Z,30.83
2018-12-12T08:35:35.327Z,29.27
2018-12-12T08:38:03.756Z,24.83
2018-12-12T08:40:32.055Z,26.93
2018-12-12T08:43:00.411Z,19.27
2018-12-12T08:45:28.764Z,22.50
2018-12-12T08:47:57.626Z,20.60
2018-12-12T08:50:25.948Z,17.50
2018-12-12T08:52:54.283Z,20.27
2018-12-12T08:55:22.623Z,23.80
2018-12-12T08:57:51.998Z,27.20
2018-12-12T09:00:20.318Z,20.70
2018-12-12T09:02:48.657Z,20.17
2018-12-12T09:05:17.004Z,24.40
2018-12-12T09:07:45.323Z,17.23
2018-12-12T09:10:14.706Z,19.00
2018-12-12T09:12:43.085Z,21.40
2018-12-12T09:15:12.087Z,22.27
2018-12-12T09:17:40.413Z,17.70
2018-12-12T09:20:09.200Z,21.83
2018-12-12T09:22:38.188Z,15.90
2018-12-12T09:25:06.751Z,21.17
2018-12-12T09:27:35.404Z,19.10
2018-12-12T09:30:04.030Z,20.17
2018-12-12T09:32:32.976Z,21.50
2018-12-12T09:35:01.319Z,18.30
2018-12-12T09:37:30.668Z,16.40
2018-12-12T09:39:58.963Z,14.10
2018-12-12T09:42:27.300Z,19.53
2018-12-12T09:44:56.628Z,17.30
2018-12-12T09:47:25.655Z,18.63
2018-12-12T09:49:53.995Z,16.30
2018-12-12T09:52:22.432Z,16.47
2018-12-12T09:54:50.769Z,12.67
2018-12-12T09:57:19.229Z,21.00
2018-12-12T09:59:47.968Z,20.27
2018-12-12T10:02:16.296Z,18.47
2018-12-12T10:04:44.727Z,14.10
2018-12-12T10:07:13.068Z,12.90
2018-12-12T10:09:42.455Z,16.50
2018-12-12T10:12:10.784Z,14.40
2018-12-12T10:14:40.298Z,17.37
2018-12-12T10:17:09.221Z,14.33
2018-12-12T10:19:37.531Z,14.87
2018-12-12T10:22:06.416Z,15.10
2018-12-12T10:24:35.265Z,16.27
2018-12-12T10:27:03.624Z,15.00
2018-12-12T10:29:31.940Z,16.73
2018-12-12T10:32:00.280Z,12.60
2018-12-12T10:34:29.068Z,13.10
2018-12-12T10:36:57.491Z,14.37
2018-12-12T10:39:25.820Z,10.73
2018-12-12T10:41:54.176Z,14.70
2018-12-12T10:44:23.134Z,17.17
2018-12-12T10:46:51.502Z,14.27
2018-12-12T10:49:19.805Z,18.93
2018-12-12T10:51:48.139Z,15.30
2018-12-12T10:54:17.516Z,11.00
2018-12-12T10:56:45.832Z,15.40
2018-12-12T10:59:14.405Z,11.97
2018-12-12T11:01:48.030Z,15.23
2018-12-12T11:04:19.615Z,13.87
2018-12-12T11:06:47.957Z,9.97
2018-12-12T11:09:16.336Z,12.90
2018-12-12T11:11:51.306Z,12.23
2018-12-12T11:14:20.665Z,11.17
2018-12-12T11:16:49.041Z,12.60
2018-12-12T11:19:18.052Z,9.60
2018-12-12T11:21:47.383Z,10.17
2018-12-12T11:24:16.690Z,12.13
2018-12-12T11:26:52.631Z,15.40
2018-12-12T11:29:20.939Z,12.37
2018-12-12T11:31:49.291Z,9.53
2018-12-12T11:34:17.646Z,10.20
2018-12-12T11:36:46.994Z,8.20
2018-12-12T11:39:15.262Z,10.50
2018-12-12T11:41:44.636Z,13.23
2018-12-12T11:44:12.962Z,9.33
2018-12-12T11:46:41.295Z,9.23
2018-12-12T11:49:10.651Z,10.30
2018-12-12T11:51:39.016Z,12.00
2018-12-12T11:54:10.583Z,7.30
2018-12-12T11:56:39.771Z,12.47
2018-12-12T11:59:09.091Z,8.53
2018-12-12T12:01:37.419Z,11.63
2018-12-12T12:04:05.823Z,14.50
2018-12-12T12:06:34.172Z,7.70
2018-12-12T12:09:02.640Z,9.40
2018-12-12T12:11:30.960Z,7.03
2018-12-12T12:14:00.239Z,9.97
2018-12-12T12:16:28.535Z,9.80
2018-12-12T12:18:56.872Z,14.77
2018-12-12T12:21:25.468Z,8.50
2018-12-12T12:23:54.492Z,7.70
2018-12-12T12:26:24.209Z,8.40
2018-12-12T12:28:52.616Z,9.97
2018-12-12T12:31:21.265Z,7.70
2018-12-12T12:33:49.884Z,9.20
2018-12-12T12:36:18.325Z,7.50
2018-12-12T12:38:46.663Z,9.47
2018-12-12T12:41:15.471Z,7.20
2018-12-12T12:43:47.128Z,8.97
2018-12-12T12:46:16.043Z,6.33
2018-12-12T12:48:45.359Z,6.63
2018-12-12T12:51:13.768Z,6.50
2018-12-12T12:53:42.116Z,8.80
2018-12-12T12:56:10.453Z,7.57
2018-12-12T12:58:40.000Z,8.80
2018-12-12T13:01:10.157Z,6.07
2018-12-12T13:03:39.415Z,8.97
2018-12-12T13:06:07.726Z,5.60
2018-12-12T13:08:36.532Z,6.20
2018-12-12T13:11:04.856Z,6.97
2018-12-12T13:13:34.233Z,5.37
2018-12-12T13:16:02.712Z,5.27
2018-12-12T13:18:31.219Z,9.17
2018-12-12T13:20:59.516Z,7.93
2018-12-12T13:23:27.850Z,9.17
2018-12-12T13:25:56.160Z,7.93
2018-12-12T13:28:24.463Z,4.10
2018-12-12T13:30:52.887Z,6.50
2018-12-12T13:33:22.210Z,7.60
2018-12-12T13:35:50.536Z,5.30
2018-12-12T13:38:18.846Z,7.83
2018-12-12T13:40:47.188Z,5.50
2018-12-12T13:43:15.514Z,5.07
2018-12-12T13:45:43.830Z,5.17
2018-12-12T13:48:13.256Z,5.17
2018-12-12T13:50:42.439Z,4.20
2018-12-12T13:53:10.832Z,4.30
2018-12-12T13:55:39.416Z,8.20
2018-12-12T13:58:08.079Z,5.73
2018-12-12T14:00:39.174Z,4.73
2018-12-12T14:03:06.944Z,4.33
2018-12-12T14:05:35.242Z,3.57
2018-12-12T14:08:03.595Z,4.10
2018-12-12T14:10:31.923Z,5.53
2018-12-12T14:13:00.271Z,5.47
2018-12-12T14:15:28.576Z,3.70
2018-12-12T14:17:57.291Z,3.03
2018-12-12T14:20:25.820Z,3.80
2018-12-12T14:22:54.151Z,4.37
2018-12-12T14:25:22.564Z,7.20
2018-12-12T14:27:50.932Z,4.70
2018-12-12T14:30:21.291Z,3.43
2018-12-12T14:32:49.628Z,3.80
2018-12-12T14:35:18.452Z,4.63
2018-12-12T14:37:46.946Z,4.00
2018-12-12T14:40:15.247Z,3.53
2018-12-12T14:42:43.577Z,5.60
2018-12-12T14:45:12.001Z,2.93
2018-12-12T14:47:41.418Z,4.63
2018-12-12T14:50:10.730Z,4.63
2018-12-12T14:52:39.036Z,3.70
2018-12-12T14:55:07.588Z,4.03
2018-12-12T14:57:37.608Z,4.90
2018-12-12T15:00:06.109Z,3.80
2018-12-12T15:02:34.417Z,3.37
2018-12-12T15:05:02.752Z,4.60
2018-12-12T15:07:31.063Z,4.00
2018-12-12T15:09:59.384Z,4.00
2018-12-12T15:12:27.708Z,3.60
2018-12-12T15:14:56.665Z,4.23
2018-12-12T15:17:26.008Z,6.20
2018-12-12T15:19:54.389Z,3.70
2018-12-12T15:22:22.884Z,3.60
2018-12-12T15:24:51.765Z,4.53
2018-12-12T15:27:21.087Z,3.70
2018-12-12T15:29:49.407Z,2.97
2018-12-12T15:32:18.753Z,3.23
2018-12-12T15:34:47.112Z,4.20
2018-12-12T15:37:16.008Z,4.43
2018-12-12T15:39:44.337Z,2.93
2018-12-12T15:42:12.598Z,3.80
2018-12-12T15:44:40.932Z,3.27
2018-12-12T15:47:10.606Z,3.90
2018-12-12T15:49:39.954Z,2.97
2018-12-12T15:52:08.730Z,3.63
2018-12-12T15:54:38.043Z,3.90
2018-12-12T15:57:06.372Z,2.67
2018-12-12T15:59:34.697Z,3.47
2018-12-12T16:02:03.073Z,3.03
2018-12-12T16:04:31.376Z,3.67
2018-12-12T16:06:59.721Z,3.00
2018-12-12T16:09:28.051Z,3.17
2018-12-12T16:11:57.001Z,2.80
2018-12-12T16:14:25.333Z,2.60
2018-12-12T16:16:53.648Z,2.57
2018-12-12T16:19:21.990Z,2.87
2018-12-12T16:21:51.342Z,2.33
2018-12-12T16:24:20.729Z,2.77
2018-12-12T16:26:49.052Z,3.90
2018-12-12T16:29:17.413Z,2.90
2018-12-12T16:31:45.701Z,2.70
2018-12-12T16:34:14.048Z,3.57
2018-12-12T16:36:42.566Z,3.27
2018-12-12T16:39:10.892Z,2.70
2018-12-12T16:41:39.232Z,2.93
2018-12-12T16:44:08.593Z,2.87
2018-12-12T16:46:37.281Z,2.90
2018-12-12T16:49:05.630Z,3.07
2018-12-12T16:51:33.945Z,3.37
2018-12-12T16:54:02.272Z,3.03
2018-12-12T16:57:01.871Z,3.00
2018-12-12T16:59:30.154Z,2.50
2018-12-12T17:02:00.193Z,2.70
2018-12-12T17:04:29.720Z,3.17
2018-12-12T17:06:58.968Z,2.30
2018-12-12T17:09:27.657Z,2.40
2018-12-12T17:11:55.968Z,3.03
2018-12-12T17:14:27.279Z,3.80
2018-12-12T17:16:55.715Z,6.10
2018-12-12T17:19:24.872Z,2.03
2018-12-12T17:21:53.228Z,2.33
2018-12-12T17:24:21.559Z,2.73
2018-12-12T17:26:49.888Z,2.20
2018-12-12T17:29:19.091Z,4.37
2018-12-12T17:31:47.491Z,3.30
2018-12-12T17:34:16.491Z,2.00
2018-12-12T17:36:45.026Z,2.43
2018-12-12T17:39:14.189Z,3.00
2018-12-12T17:41:42.519Z,2.80
2018-12-12T17:44:10.836Z,2.30
2018-12-12T17:46:39.165Z,2.47
2018-12-12T17:49:08.096Z,2.60
2018-12-12T17:51:36.701Z,2.47
2018-12-12T17:54:05.147Z,3.30
2018-12-12T17:56:34.488Z,2.63
2018-12-12T17:59:03.052Z,2.57
2018-12-12T18:01:31.469Z,3.20
2018-12-12T18:03:59.751Z,2.60
2018-12-12T18:06:28.096Z,3.60
2018-12-12T18:08:56.408Z,2.53
2018-12-12T18:11:25.006Z,2.43
2018-12-12T18:13:53.319Z,3.80
2018-12-12T18:16:22.672Z,2.50
2018-12-12T18:18:50.984Z,2.63
2018-12-12T18:21:19.366Z,4.50
2018-12-12T18:23:47.693Z,2.43
2018-12-12T18:26:16.022Z,1.90
2018-12-12T18:28:45.400Z,3.57
2018-12-12T18:31:14.695Z,2.70
2018-12-12T18:33:43.729Z,3.13
2018-12-12T18:36:12.037Z,3.20
2018-12-12T18:38:41.763Z,1.87
2018-12-12T18:41:10.132Z,2.97
2018-12-12T18:43:39.165Z,2.10
2018-12-12T18:46:07.596Z,4.90
2018-12-12T18:48:36.272Z,2.77
2018-12-12T18:51:04.612Z,2.20
2018-12-12T18:53:33.180Z,2.53
2018-12-12T18:56:03.127Z,2.17
2018-12-12T18:58:31.531Z,2.70
2018-12-12T19:00:59.897Z,2.20
2018-12-12T19:03:28.203Z,2.50
2018-12-12T19:05:58.003Z,1.80
2018-12-12T19:08:26.360Z,1.70
2018-12-12T19:10:54.700Z,2.83
2018-12-12T19:13:23.582Z,2.23
2018-12-12T19:15:52.504Z,1.83
2018-12-12T19:18:21.848Z,2.03
2018-12-12T19:20:50.564Z,2.07
2018-12-12T19:23:20.119Z,2.30
2018-12-12T19:25:48.407Z,2.10
2018-12-12T19:28:16.739Z,2.43
2018-12-12T19:30:45.067Z,2.37
2018-12-12T19:33:14.431Z,14.33
2018-12-12T19:35:44.315Z,4.67
2018-12-12T19:38:12.644Z,6.77
2018-12-12T19:40:40.977Z,6.87
2018-12-12T19:43:09.986Z,6.30
2018-12-12T19:45:38.390Z,5.00
2018-12-12T19:48:07.248Z,5.70
2018-12-12T19:50:35.620Z,6.27
2018-12-12T19:53:04.539Z,11.50
2018-12-12T19:55:32.963Z,6.03
2018-12-12T19:58:02.439Z,6.77
2018-12-12T20:00:30.858Z,4.73
2018-12-12T20:02:59.225Z,3.80
2018-12-12T20:05:28.784Z,5.90
2018-12-12T20:07:57.714Z,6.13
2018-12-12T20:10:26.328Z,5.60
2018-12-12T20:12:56.049Z,3.77
2018-12-12T20:15:30.079Z,3.43
2018-12-12T20:17:59.412Z,6.03
2018-12-12T20:20:28.782Z,4.40
2018-12-12T20:22:57.679Z,5.13
2018-12-12T20:25:26.015Z,3.67
2018-12-12T20:27:55.295Z,5.20
2018-12-12T20:30:24.889Z,5.60
2018-12-12T20:32:53.416Z,3.60
2018-12-12T20:35:21.777Z,4.03
2018-12-12T20:37:51.129Z,6.57
2018-12-12T20:40:20.762Z,5.97
2018-12-12T20:42:50.124Z,5.30
2018-12-12T20:45:18.482Z,5.13
2018-12-12T20:47:47.108Z,4.17
2018-12-12T20:50:15.446Z,4.57
2018-12-12T20:52:43.821Z,7.17
2018-12-12T20:55:12.413Z,3.97
2018-12-12T20:57:40.788Z,3.80
2018-12-12T21:00:09.343Z,4.97
2018-12-12T21:02:38.023Z,5.57
2018-12-12T21:05:06.393Z,5.23
2018-12-12T21:07:34.819Z,4.17
2018-12-12T21:10:03.336Z,6.20
2018-12-12T21:12:31.703Z,4.20
2018-12-12T21:15:01.044Z,5.20
2018-12-12T21:17:29.744Z,4.70
2018-12-12T21:19:58.131Z,4.97
2018-12-12T21:22:26.441Z,3.60
2018-12-12T21:24:55.717Z,11.30
2018-12-12T21:27:24.721Z,5.00
2018-12-12T21:29:53.655Z,4.80
2018-12-12T21:32:23.579Z,10.50
2018-12-12T21:34:52.691Z,3.67
2018-12-12T21:37:21.895Z,5.53
2018-12-12T21:39:52.086Z,3.17
2018-12-12T21:42:21.256Z,5.07
2018-12-12T21:44:50.471Z,3.93
2018-12-12T21:47:19.840Z,6.33
2018-12-12T21:49:49.447Z,3.93
2018-12-12T21:52:18.443Z,4.40
2018-12-12T21:54:48.023Z,4.63
2018-12-12T21:57:17.414Z,2.93
2018-12-12T21:59:49.739Z,3.57
2018-12-12T22:02:19.869Z,4.57
2018-12-12T22:04:48.802Z,2.97
2018-12-12T22:07:17.752Z,7.70
2018-12-12T22:09:46.790Z,5.57
2018-12-12T22:12:16.230Z,5.80
2018-12-12T22:14:45.713Z,2.80
2018-12-12T22:17:14.746Z,3.30
2018-12-12T22:19:43.828Z,2.50
2018-12-12T22:22:12.861Z,3.30
2018-12-12T22:24:41.187Z,3.20
2018-12-12T22:27:10.542Z,5.13
2018-12-12T22:29:39.579Z,3.17
2018-12-12T22:32:07.892Z,4.17
2018-12-12T22:34:36.161Z,7.50
2018-12-12T22:37:04.515Z,3.27
2018-12-12T22:39:32.852Z,3.27
2018-12-12T22:42:01.172Z,4.80
2018-12-12T22:44:30.558Z,4.53
2018-12-12T22:46:58.892Z,3.57
2018-12-12T22:49:27.233Z,4.93
2018-12-12T22:51:55.581Z,5.07
2018-12-12T22:54:24.952Z,3.03
2018-12-12T22:56:53.327Z,3.40
2018-12-12T22:59:21.635Z,4.90
2018-12-12T23:01:49.943Z,4.10
2018-12-12T23:04:18.279Z,2.87
2018-12-12T23:06:46.599Z,3.53
2018-12-12T23:09:14.927Z,3.03
2018-12-12T23:11:43.818Z,2.53
2018-12-12T23:14:12.129Z,3.40
2018-12-12T23:16:41.195Z,4.00
2018-12-12T23:19:09.514Z,3.17
2018-12-12T23:21:37.855Z,2.57
2018-12-12T23:24:06.476Z,2.40
2018-12-12T23:26:35.781Z,2.60
2018-12-12T23:29:04.639Z,4.17
2018-12-12T23:31:33.009Z,3.57
2018-12-12T23:34:01.571Z,2.23
2018-12-12T23:36:29.889Z,2.50
2018-12-12T23:38:58.232Z,2.40
2018-12-12T23:41:26.585Z,2.67
2018-12-12T23:43:55.037Z,2.53
2018-12-12T23:46:23.326Z,3.47
2018-12-12T23:48:52.140Z,5.80
2018-12-12T23:51:20.460Z,2.57
2018-12-12T23:53:48.796Z,4.50
2018-12-12T23:56:17.432Z,4.10
2018-12-12T23:58:45.755Z,2.50
